Time;durP1;ratioP1;P1;durP2;ratioP2;P2;SDS_P1;SDS_P2;PMS_P1;PMS_P2;Temp;Humidity;BMP_temperature;BMP_pressure;BME280_temperature;BME280_humidity;BME280_pressure;Samples;Min_cycle;Max_cycle;Signal;HPM_P1;HPM_P2
2021/08/14 00:00:51;;;;;;;8.65;6.53;;;20.50;99.90;;;;;;5094178;28;20208;-66
2021/08/14 00:03:18;;;;;;;7.15;6.40;;;20.50;99.90;;;;;;5094213;28;20255;-66
2021/08/14 00:05:45;;;;;;;7.18;5.70;;;20.50;99.90;;;;;;5093874;28;20285;-65
2021/08/14 00:08:11;;;;;;;7.80;6.35;;;20.40;99.90;;;;;;5093771;28;20204;-65
2021/08/14 00:10:38;;;;;;;8.27;5.95;;;20.40;99.90;;;;;;5094060;28;20330;-65
2021/08/14 00:13:05;;;;;;;8.25;5.97;;;20.40;99.90;;;;;;5093748;28;20703;-66
2021/08/14 00:15:33;;;;;;;7.75;6.13;;;20.30;99.90;;;;;;5093661;28;20589;-65
2021/08/14 00:18:00;;;;;;;7.95;5.75;;;20.40;99.90;;;;;;5093687;28;20211;-66
2021/08/14 00:20:27;;;;;;;5.88;5.18;;;20.30;99.90;;;;;;5093675;28;20197;-65
2021/08/14 00:22:53;;;;;;;8.45;6.35;;;20.20;99.90;;;;;;5093523;28;20220;-65
2021/08/14 00:25:20;;;;;;;9.68;6.30;;;20.10;99.90;;;;;;5093446;28;20679;-65
2021/08/14 00:27:47;;;;;;;7.68;5.80;;;20.10;99.90;;;;;;5093633;28;20205;-66
2021/08/14 00:30:13;;;;;;;7.43;5.60;;;20.00;99.90;;;;;;5093137;28;20208;-65
2021/08/14 00:32:41;;;;;;;8.63;5.53;;;20.00;99.90;;;;;;5093322;28;20364;-65
2021/08/14 00:35:09;;;;;;;8.65;5.63;;;20.00;99.90;;;;;;5093318;28;20224;-65
2021/08/14 00:37:36;;;;;;;6.70;5.93;;;19.90;99.90;;;;;;5093590;28;20232;-65
2021/08/14 00:40:03;;;;;;;7.55;6.00;;;20.00;99.90;;;;;;5093531;28;20208;-65
2021/08/14 00:42:30;;;;;;;7.07;6.13;;;19.90;99.90;;;;;;5093408;28;20204;-65
2021/08/14 00:44:57;;;;;;;8.70;6.03;;;19.80;99.90;;;;;;5093231;28;20204;-65
2021/08/14 00:47:25;;;;;;;9.50;5.97;;;19.80;99.90;;;;;;5093360;28;20305;-65
2021/08/14 00:49:54;;;;;;;8.52;5.82;;;19.80;99.90;;;;;;5093225;28;20318;-65
2021/08/14 00:52:21;;;;;;;6.68;5.60;;;19.70;99.90;;;;;;5093292;28;20282;-65
2021/08/14 00:54:47;;;;;;;8.50;5.82;;;19.70;99.90;;;;;;5093191;28;20228;-65
2021/08/14 00:57:15;;;;;;;8.40;6.50;;;19.70;99.90;;;;;;5093191;28;20212;-65
2021/08/14 00:59:42;;;;;;;7.38;5.97;;;19.60;99.90;;;;;;5092974;28;20205;-65
2021/08/14 01:02:09;;;;;;;8.57;6.20;;;19.60;99.90;;;;;;5092928;28;20203;-65
2021/08/14 01:04:36;;;;;;;9.20;6.35;;;19.60;99.90;;;;;;5092840;28;20232;-65
2021/08/14 01:07:04;;;;;;;6.78;5.68;;;19.60;99.90;;;;;;5092977;28;20204;-65
2021/08/14 01:09:31;;;;;;;6.65;5.97;;;19.60;99.90;;;;;;5092875;28;20219;-65
2021/08/14 01:11:59;;;;;;;7.47;6.38;;;19.50;99.90;;;;;;5092837;28;20703;-65
2021/08/14 01:14:26;;;;;;;7.68;6.07;;;19.50;99.90;;;;;;5092788;28;20232;-66
2021/08/14 01:16:53;;;;;;;7.60;6.15;;;19.50;99.90;;;;;;5092787;28;20295;-65
2021/08/14 01:19:21;;;;;;;6.75;6.05;;;19.50;99.90;;;;;;5093007;28;20644;-65
2021/08/14 01:21:49;;;;;;;6.90;6.20;;;19.40;99.90;;;;;;5092931;28;20584;-66
2021/08/14 01:24:17;;;;;;;14.25;6.20;;;19.40;99.90;;;;;;5092438;28;20228;-66
2021/08/14 01:26:46;;;;;;;7.63;5.85;;;19.40;99.90;;;;;;5092747;28;20204;-65
2021/08/14 01:29:13;;;;;;;6.95;5.88;;;19.30;99.90;;;;;;5092611;28;20204;-65
2021/08/14 01:31:40;;;;;;;9.55;6.25;;;19.30;99.90;;;;;;5092344;28;20220;-66
2021/08/14 01:34:07;;;;;;;7.90;5.60;;;19.20;99.90;;;;;;5092210;28;20243;-65
2021/08/14 01:36:34;;;;;;;9.68;6.35;;;19.30;99.90;;;;;;5092492;28;20579;-65
2021/08/14 01:39:04;;;;;;;6.70;5.55;;;19.20;99.90;;;;;;5092326;28;20253;-66
2021/08/14 01:41:31;;;;;;;8.20;5.68;;;19.20;99.90;;;;;;5091409;28;20605;-66
2021/08/14 01:44:01;;;;;;;8.90;6.28;;;19.10;99.90;;;;;;5091891;28;20220;-65
2021/08/14 01:46:30;;;;;;;6.38;5.70;;;19.00;99.90;;;;;;5092467;28;20625;-66
2021/08/14 01:48:56;;;;;;;8.23;5.88;;;18.90;99.90;;;;;;5092149;28;20212;-65
2021/08/14 01:51:23;;;;;;;10.85;6.20;;;18.80;99.90;;;;;;5091899;28;20608;-65
2021/08/14 01:53:52;;;;;;;7.70;6.00;;;18.90;99.90;;;;;;5091798;28;20232;-65
2021/08/14 01:56:19;;;;;;;8.75;6.20;;;18.90;99.90;;;;;;5091864;28;20668;-66
2021/08/14 01:58:46;;;;;;;7.13;6.05;;;18.90;99.90;;;;;;5092037;28;20208;-65
2021/08/14 02:01:14;;;;;;;9.93;6.53;;;18.90;99.90;;;;;;5092184;28;20478;-66
2021/08/14 02:03:42;;;;;;;11.05;6.35;;;18.90;99.90;;;;;;5092188;28;20427;-66
2021/08/14 02:06:09;;;;;;;7.18;6.43;;;18.90;99.90;;;;;;5092040;28;20204;-66
2021/08/14 02:08:37;;;;;;;10.70;6.53;;;18.80;99.90;;;;;;5091554;28;20719;-65
2021/08/14 02:11:09;;;;;;;13.90;6.93;;;18.80;99.90;;;;;;5091546;28;20220;-65
2021/08/14 02:13:36;;;;;;;8.80;6.25;;;18.80;99.90;;;;;;5091890;28;20232;-66
2021/08/14 02:16:03;;;;;;;6.45;5.85;;;18.80;99.90;;;;;;5091756;28;20632;-65
2021/08/14 02:18:31;;;;;;;10.98;6.25;;;18.70;99.90;;;;;;5091517;28;20204;-65
2021/08/14 02:20:58;;;;;;;6.93;6.22;;;18.70;99.90;;;;;;5091478;28;20204;-65
2021/08/14 02:23:25;;;;;;;8.43;6.65;;;18.70;99.90;;;;;;5091182;28;20639;-66
2021/08/14 02:25:51;;;;;;;9.27;6.60;;;18.60;99.90;;;;;;5091418;28;20211;-66
2021/08/14 02:28:18;;;;;;;7.70;6.35;;;18.60;99.90;;;;;;5091388;28;20200;-65
2021/08/14 02:30:45;;;;;;;8.88;5.97;;;18.60;99.90;;;;;;5091398;28;20204;-65
2021/08/14 02:33:12;;;;;;;7.03;6.15;;;18.50;99.90;;;;;;5091165;28;20236;-65
2021/08/14 02:35:40;;;;;;;7.63;6.43;;;18.50;99.90;;;;;;5091312;28;20208;-65
2021/08/14 02:38:06;;;;;;;9.20;6.55;;;18.50;99.90;;;;;;5091037;28;20203;-65
2021/08/14 02:40:34;;;;;;;7.55;5.90;;;18.50;99.90;;;;;;5091368;28;20208;-65
2021/08/14 02:43:01;;;;;;;9.15;6.32;;;18.50;99.90;;;;;;5091162;28;20243;-65
2021/08/14 02:45:28;;;;;;;7.88;6.60;;;18.50;99.90;;;;;;5091147;28;20204;-66
2021/08/14 02:47:56;;;;;;;9.00;6.43;;;18.50;99.90;;;;;;5091018;28;20207;-65
2021/08/14 02:50:22;;;;;;;9.68;6.65;;;18.50;99.90;;;;;;5091085;28;20726;-65
2021/08/14 02:52:50;;;;;;;7.90;6.47;;;18.40;99.90;;;;;;5090824;28;20231;-65
2021/08/14 02:55:17;;;;;;;7.88;6.43;;;18.40;99.90;;;;;;5090997;28;20207;-65
2021/08/14 02:57:44;;;;;;;9.75;7.57;;;18.30;99.90;;;;;;5090996;28;20200;-65
2021/08/14 03:00:11;;;;;;;8.30;6.88;;;18.30;99.90;;;;;;5090943;28;20215;-66
2021/08/14 03:02:38;;;;;;;8.93;7.20;;;18.30;99.90;;;;;;5090825;28;20200;-65
2021/08/14 03:05:05;;;;;;;8.57;6.35;;;18.30;99.90;;;;;;5090518;28;20630;-65
2021/08/14 03:07:33;;;;;;;8.13;6.45;;;18.20;99.90;;;;;;5090910;28;20276;-65
2021/08/14 03:10:01;;;;;;;10.32;6.60;;;18.20;99.90;;;;;;5090955;28;20244;-66
2021/08/14 03:12:27;;;;;;;6.60;5.78;;;18.20;99.90;;;;;;5090858;28;20231;-65
2021/08/14 03:14:54;;;;;;;7.07;6.25;;;18.20;99.90;;;;;;5090739;28;20212;-65
2021/08/14 03:17:21;;;;;;;7.78;6.32;;;18.10;99.90;;;;;;5090779;28;20223;-65
2021/08/14 03:19:47;;;;;;;7.80;6.28;;;18.10;99.90;;;;;;5090611;28;20306;-66
2021/08/14 03:22:14;;;;;;;9.43;6.38;;;18.10;99.90;;;;;;5091239;28;20283;-66
2021/08/14 03:24:41;;;;;;;8.10;6.72;;;18.10;99.90;;;;;;5091003;28;20231;-65
2021/08/14 03:27:09;;;;;;;9.93;6.75;;;18.10;99.90;;;;;;5091105;28;20590;-66
2021/08/14 03:29:36;;;;;;;8.18;5.97;;;18.10;99.90;;;;;;5090740;28;20204;-66
2021/08/14 03:32:03;;;;;;;9.70;6.47;;;18.10;99.90;;;;;;5090562;28;20220;-66
2021/08/14 03:34:31;;;;;;;9.02;7.00;;;18.00;99.90;;;;;;5090962;28;20426;-66
2021/08/14 03:36:57;;;;;;;6.75;6.10;;;18.10;99.90;;;;;;5090743;28;20200;-65
2021/08/14 03:39:24;;;;;;;10.68;6.93;;;18.10;99.90;;;;;;5090350;28;20212;-66
2021/08/14 03:41:51;;;;;;;9.57;6.07;;;18.00;99.90;;;;;;5090847;28;20200;-65
2021/08/14 03:44:19;;;;;;;7.88;6.57;;;18.00;99.90;;;;;;5090429;28;20224;-66
2021/08/14 03:46:45;;;;;;;7.38;6.60;;;18.00;99.90;;;;;;5090545;28;20589;-67
2021/08/14 03:49:12;;;;;;;8.85;6.70;;;18.00;99.90;;;;;;5090794;28;20204;-64
2021/08/14 03:51:39;;;;;;;7.80;6.97;;;18.00;99.90;;;;;;5090429;28;20727;-65
2021/08/14 03:54:05;;;;;;;8.30;6.53;;;18.10;99.90;;;;;;5090181;28;20648;-65
2021/08/14 03:56:32;;;;;;;7.70;6.43;;;18.00;99.90;;;;;;5090246;28;20664;-65
2021/08/14 03:58:59;;;;;;;7.30;6.50;;;18.00;99.90;;;;;;5090191;28;20675;-65
2021/08/14 04:01:27;;;;;;;7.60;6.40;;;17.90;99.90;;;;;;5090222;28;20212;-64
2021/08/14 04:03:54;;;;;;;7.78;6.95;;;17.90;99.90;;;;;;5091459;28;20232;-65
2021/08/14 04:06:20;;;;;;;9.32;6.57;;;17.90;99.90;;;;;;5094090;28;20207;-65
2021/08/14 04:08:47;;;;;;;8.82;6.95;;;17.90;99.90;;;;;;5093982;28;20262;-65
2021/08/14 04:11:13;;;;;;;8.02;6.82;;;17.90;99.90;;;;;;5093862;28;20204;-65
2021/08/14 04:13:40;;;;;;;10.80;6.85;;;17.90;99.90;;;;;;5093505;28;20224;-65
2021/08/14 04:16:07;;;;;;;8.85;7.28;;;17.90;99.90;;;;;;5093685;28;20208;-65
2021/08/14 04:18:35;;;;;;;8.77;7.00;;;17.90;99.90;;;;;;5093763;28;20203;-64
2021/08/14 04:21:01;;;;;;;8.93;6.30;;;17.90;99.90;;;;;;5093644;28;20212;-65
2021/08/14 04:23:28;;;;;;;8.20;6.78;;;17.90;99.90;;;;;;5093623;28;20231;-66
2021/08/14 04:25:55;;;;;;;8.95;7.10;;;17.90;99.90;;;;;;5093761;28;20215;-65
2021/08/14 04:28:22;;;;;;;7.75;6.47;;;17.90;99.90;;;;;;5093541;28;20245;-65
2021/08/14 04:30:48;;;;;;;10.60;7.30;;;17.90;99.90;;;;;;5093562;28;20261;-65
2021/08/14 04:33:15;;;;;;;7.60;6.63;;;17.90;99.90;;;;;;5093264;28;20229;-65
2021/08/14 04:35:43;;;;;;;7.57;6.78;;;17.90;99.90;;;;;;5093411;28;20211;-65
2021/08/14 04:38:09;;;;;;;10.38;6.90;;;17.80;99.90;;;;;;5093456;28;20208;-65
2021/08/14 04:40:36;;;;;;;8.65;7.13;;;17.90;99.90;;;;;;5093415;28;20204;-65
2021/08/14 04:43:03;;;;;;;9.82;7.25;;;17.90;99.90;;;;;;5092979;28;20243;-65
2021/08/14 04:45:30;;;;;;;10.30;6.70;;;18.00;99.90;;;;;;5093277;28;20208;-66
2021/08/14 04:47:56;;;;;;;7.70;6.90;;;18.00;99.90;;;;;;5092915;28;20738;-65
2021/08/14 04:50:23;;;;;;;7.72;6.88;;;18.10;99.90;;;;;;5093187;28;20219;-65
2021/08/14 04:52:51;;;;;;;10.98;6.22;;;18.10;99.90;;;;;;5093053;28;20231;-65
2021/08/14 04:55:18;;;;;;;7.25;6.55;;;18.20;99.90;;;;;;5092876;28;20208;-65
2021/08/14 04:57:44;;;;;;;10.90;7.15;;;18.20;99.90;;;;;;5092751;28;20595;-65
2021/08/14 05:00:12;;;;;;;7.43;6.63;;;18.30;99.90;;;;;;5093086;28;20208;-65
2021/08/14 05:02:39;;;;;;;7.80;7.00;;;18.30;99.90;;;;;;5092841;28;20548;-65
2021/08/14 05:05:07;;;;;;;9.68;6.47;;;18.40;99.90;;;;;;5092859;28;20590;-65
2021/08/14 05:07:35;;;;;;;9.35;6.72;;;18.30;99.90;;;;;;5093504;28;20208;-65
2021/08/14 05:10:03;;;;;;;8.98;7.72;;;18.40;99.90;;;;;;5092685;28;20653;-65
2021/08/14 05:12:30;;;;;;;11.13;7.00;;;18.40;99.90;;;;;;5092886;28;20285;-66
2021/08/14 05:14:57;;;;;;;11.85;7.18;;;18.50;99.90;;;;;;5091822;28;20207;-65
2021/08/14 05:17:23;;;;;;;8.07;6.68;;;18.60;99.90;;;;;;5093061;28;20296;-65
2021/08/14 05:19:50;;;;;;;9.38;6.88;;;18.70;99.90;;;;;;5093163;28;20204;-65
2021/08/14 05:22:17;;;;;;;8.27;6.80;;;18.70;99.90;;;;;;5092960;28;20201;-65
2021/08/14 05:24:44;;;;;;;8.07;7.28;;;18.80;99.90;;;;;;5092664;28;20274;-65
2021/08/14 05:27:12;;;;;;;10.65;7.05;;;18.90;99.90;;;;;;5093194;28;20204;-66
2021/08/14 05:29:39;;;;;;;8.60;6.82;;;19.00;99.90;;;;;;5092561;28;20262;-66
2021/08/14 05:32:07;;;;;;;8.13;6.70;;;19.10;99.90;;;;;;5092648;28;20587;-66
2021/08/14 05:34:34;;;;;;;9.20;7.03;;;19.20;99.90;;;;;;5092195;28;20285;-66
2021/08/14 05:37:00;;;;;;;8.07;6.85;;;19.30;99.90;;;;;;5092638;28;20216;-65
2021/08/14 05:39:27;;;;;;;8.65;6.82;;;19.60;99.90;;;;;;5092774;28;20494;-65
2021/08/14 05:41:54;;;;;;;9.80;6.90;;;19.70;99.90;;;;;;5092571;28;20243;-65
2021/08/14 05:44:22;;;;;;;8.13;6.45;;;20.30;99.90;;;;;;5092274;28;20228;-66
2021/08/14 05:46:49;;;;;;;7.93;6.05;;;21.60;99.90;;;;;;5092481;28;20208;-65
2021/08/14 05:49:16;;;;;;;6.68;5.60;;;23.20;99.90;;;;;;5092243;28;20212;-66
2021/08/14 05:51:42;;;;;;;7.55;5.72;;;25.00;99.90;;;;;;5092322;28;20226;-65
2021/08/14 05:54:09;;;;;;;7.45;5.90;;;26.50;99.90;;;;;;5091796;28;20243;-66
2021/08/14 05:56:36;;;;;;;7.15;5.20;;;27.80;99.90;;;;;;5091823;28;20690;-63
2021/08/14 05:59:03;;;;;;;7.10;5.55;;;29.00;99.90;;;;;;5092934;28;20672;-64
2021/08/14 06:01:31;;;;;;;6.78;5.63;;;30.30;99.90;;;;;;5092557;28;20273;-64
2021/08/14 06:03:58;;;;;;;8.00;5.00;;;31.50;99.90;;;;;;5092397;28;20246;-64
2021/08/14 06:06:25;;;;;;;6.47;5.03;;;32.50;99.90;;;;;;5092154;28;20204;-64
2021/08/14 06:08:51;;;;;;;6.63;4.68;;;33.40;97.90;;;;;;5092330;28;20208;-64
2021/08/14 06:11:18;;;;;;;5.90;5.10;;;34.20;95.30;;;;;;5092128;28;20556;-64
2021/08/14 06:13:45;;;;;;;8.13;5.15;;;34.90;92.30;;;;;;5092257;28;20243;-64
2021/08/14 06:16:14;;;;;;;7.47;4.90;;;35.50;90.30;;;;;;5092525;28;20684;-64
2021/08/14 06:18:42;;;;;;;6.15;5.13;;;36.00;86.60;;;;;;5092337;28;20281;-65
2021/08/14 06:21:09;;;;;;;5.25;4.75;;;36.30;83.10;;;;;;5092187;28;20590;-65
2021/08/14 06:23:36;;;;;;;5.07;4.40;;;36.50;80.20;;;;;;5091414;28;20269;-65
2021/08/14 06:26:03;;;;;;;7.25;4.82;;;36.60;79.20;;;;;;5091843;28;20212;-64
2021/08/14 06:28:30;;;;;;;6.35;5.20;;;37.10;75.90;;;;;;5091752;28;20212;-65
2021/08/14 06:30:56;;;;;;;6.38;5.15;;;37.50;74.10;;;;;;5091528;28;20254;-65
2021/08/14 06:33:23;;;;;;;5.38;4.78;;;38.00;71.80;;;;;;5091123;28;20231;-65
2021/08/14 06:35:51;;;;;;;6.70;4.82;;;38.30;70.60;;;;;;5091990;28;20208;-65
2021/08/14 06:38:18;;;;;;;8.13;4.82;;;38.60;68.80;;;;;;5091100;28;20207;-65
2021/08/14 06:40:44;;;;;;;6.05;4.93;;;39.10;66.40;;;;;;5091551;28;20602;-65
2021/08/14 06:43:11;;;;;;;5.90;5.30;;;39.50;64.40;;;;;;5090855;28;20228;-65
2021/08/14 06:45:38;;;;;;;7.50;4.72;;;39.70;63.60;;;;;;5091008;28;20211;-65
2021/08/14 06:48:05;;;;;;;6.63;5.03;;;39.70;63.10;;;;;;5091330;28;20208;-65
2021/08/14 06:50:32;;;;;;;7.38;4.78;;;39.90;61.80;;;;;;5091607;28;20200;-62
2021/08/14 06:53:00;;;;;;;5.13;4.43;;;40.00;61.40;;;;;;5091290;28;20242;-61
2021/08/14 06:55:26;;;;;;;5.90;4.82;;;40.00;61.10;;;;;;5091081;28;20212;-62
2021/08/14 06:57:53;;;;;;;6.95;5.07;;;40.20;60.80;;;;;;5091119;28;20257;-63
2021/08/14 07:00:20;;;;;;;8.45;5.00;;;40.50;59.80;;;;;;5091103;28;20212;-62
2021/08/14 07:02:46;;;;;;;5.07;4.68;;;40.70;58.90;;;;;;5090826;28;20220;-65
2021/08/14 07:05:13;;;;;;;8.98;5.30;;;40.70;58.70;;;;;;5091011;28;20279;-64
2021/08/14 07:07:40;;;;;;;6.82;5.10;;;40.50;58.30;;;;;;5091002;28;20203;-61
2021/08/14 07:10:09;;;;;;;9.80;5.50;;;40.50;57.70;;;;;;5090974;28;20204;-61
2021/08/14 07:12:36;;;;;;;6.70;4.88;;;40.60;57.60;;;;;;5090780;28;20220;-61
2021/08/14 07:15:03;;;;;;;6.55;5.13;;;40.60;56.90;;;;;;5090630;28;20204;-61
2021/08/14 07:17:29;;;;;;;6.80;4.95;;;40.50;56.60;;;;;;5090883;28;20219;-62
2021/08/14 07:19:56;;;;;;;7.18;5.15;;;40.30;56.50;;;;;;5090703;28;20204;-61
2021/08/14 07:22:23;;;;;;;8.45;5.18;;;39.90;58.10;;;;;;5090838;28;20235;-61
2021/08/14 07:24:49;;;;;;;7.35;5.07;;;39.80;57.90;;;;;;5090556;28;20228;-61
2021/08/14 07:27:17;;;;;;;7.57;5.00;;;40.20;57.40;;;;;;5090698;28;20208;-61
2021/08/14 07:29:44;;;;;;;5.78;5.20;;;40.90;55.10;;;;;;5090407;28;20612;-61
2021/08/14 07:32:13;;;;;;;6.10;5.15;;;41.00;54.50;;;;;;5090720;28;20212;-60
2021/08/14 07:34:40;;;;;;;7.20;5.28;;;40.90;54.50;;;;;;5090384;28;20255;-65
2021/08/14 07:37:07;;;;;;;6.60;4.93;;;41.20;54.00;;;;;;5090672;28;20203;-62
2021/08/14 07:39:34;;;;;;;8.02;5.00;;;41.70;53.30;;;;;;5093096;28;20211;-62
2021/08/14 07:42:00;;;;;;;5.95;4.88;;;41.80;51.60;;;;;;5094491;28;20208;-62
2021/08/14 07:44:28;;;;;;;5.50;4.88;;;41.50;51.90;;;;;;5094057;28;20220;-64
2021/08/14 07:46:55;;;;;;;7.07;4.80;;;41.50;52.10;;;;;;5094302;28;20208;-63
2021/08/14 07:49:22;;;;;;;4.72;4.30;;;41.50;52.30;;;;;;5094505;28;20201;-63
2021/08/14 07:51:49;;;;;;;6.38;4.68;;;41.80;51.90;;;;;;5094362;28;20204;-63
2021/08/14 07:54:16;;;;;;;7.10;4.85;;;42.10;51.40;;;;;;5094052;28;20541;-63
2021/08/14 07:56:42;;;;;;;5.70;5.10;;;42.40;51.10;;;;;;5094144;28;20226;-63
2021/08/14 07:59:09;;;;;;;6.15;4.82;;;42.50;50.70;;;;;;5094132;28;20600;-63
2021/08/14 08:01:37;;;;;;;6.38;5.05;;;42.50;50.80;;;;;;5094220;28;20809;-62
2021/08/14 08:04:04;;;;;;;5.65;4.93;;;42.10;51.40;;;;;;5093969;28;20224;-62
2021/08/14 08:06:30;;;;;;;5.65;4.97;;;41.70;51.90;;;;;;5093826;28;20606;-62
2021/08/14 08:08:57;;;;;;;5.68;4.80;;;41.90;51.60;;;;;;5093824;28;20215;-63
2021/08/14 08:11:24;;;;;;;7.88;4.90;;;42.40;50.90;;;;;;5094120;28;20371;-62
2021/08/14 08:13:50;;;;;;;5.18;4.47;;;42.80;49.90;;;;;;5094018;28;20223;-69
2021/08/14 08:16:17;;;;;;;7.40;4.75;;;43.00;49.50;;;;;;5094145;28;20204;-69
2021/08/14 08:18:45;;;;;;;8.57;5.28;;;43.30;48.90;;;;;;5093923;28;20260;-68
2021/08/14 08:21:12;;;;;;;5.50;4.60;;;43.30;48.70;;;;;;5093910;28;20204;-68
2021/08/14 08:23:39;;;;;;;5.28;4.70;;;43.70;47.80;;;;;;5093686;28;20403;-68
2021/08/14 08:26:05;;;;;;;7.57;4.60;;;43.90;48.00;;;;;;5093620;28;20295;-68
2021/08/14 08:28:32;;;;;;;6.70;4.43;;;43.70;47.00;;;;;;5093798;28;20235;-68
2021/08/14 08:30:59;;;;;;;5.15;4.32;;;43.50;47.60;;;;;;5093663;28;20207;-68
2021/08/14 08:33:25;;;;;;;7.05;4.43;;;42.90;47.80;;;;;;5093218;28;20230;-69
2021/08/14 08:35:53;;;;;;;5.60;4.88;;;41.90;48.90;;;;;;5093626;28;20204;-69
2021/08/14 08:38:21;;;;;;;6.95;4.80;;;40.50;51.00;;;;;;5093374;28;20208;-69
2021/08/14 08:40:48;;;;;;;5.40;4.82;;;39.20;53.10;;;;;;5093447;28;20216;-69
2021/08/14 08:43:15;;;;;;;6.25;5.40;;;37.80;54.90;;;;;;5093480;28;20231;-68
2021/08/14 08:45:42;;;;;;;7.00;5.05;;;36.50;57.30;;;;;;5093746;28;20208;-68
2021/08/14 08:48:09;;;;;;;10.60;5.45;;;35.50;58.70;;;;;;5093844;28;20208;-68
2021/08/14 08:50:36;;;;;;;5.13;4.60;;;34.10;61.70;;;;;;5093059;28;20212;-68
2021/08/14 08:53:04;;;;;;;6.10;4.88;;;32.90;63.80;;;;;;5093311;28;20249;-68
2021/08/14 08:55:34;;;;;;;7.40;5.00;;;32.20;66.60;;;;;;5093252;28;20204;-68
2021/08/14 08:58:01;;;;;;;7.15;5.00;;;31.70;68.60;;;;;;5093101;28;20200;-68
2021/08/14 09:00:28;;;;;;;8.00;4.65;;;31.30;69.60;;;;;;5093317;28;20731;-67
2021/08/14 09:03:13;;;;;;;9.10;5.30;;;31.00;70.50;;;;;;5093046;28;20224;-68
2021/08/14 09:05:51;;;;;;;6.82;5.35;;;30.90;71.70;;;;;;5092831;28;20290;-67
2021/08/14 09:08:20;;;;;;;6.97;5.00;;;30.60;72.60;;;;;;5092979;28;20204;-68
2021/08/14 09:10:47;;;;;;;7.88;5.30;;;30.40;73.60;;;;;;5093042;28;20208;-67
2021/08/14 09:13:16;;;;;;;7.20;5.55;;;30.40;74.30;;;;;;5092696;28;20606;-68
2021/08/14 09:15:43;;;;;;;6.07;5.05;;;30.40;75.00;;;;;;5092637;28;20208;-67
2021/08/14 09:18:11;;;;;;;6.28;4.93;;;30.50;75.20;;;;;;5092748;28;20204;-68
2021/08/14 09:20:47;;;;;;;6.35;5.22;;;30.40;75.70;;;;;;5092720;28;20208;-68
2021/08/14 09:23:15;;;;;;;7.85;5.53;;;30.30;76.70;;;;;;5092803;28;20300;-68
2021/08/14 09:25:44;;;;;;;7.13;5.57;;;30.20;77.30;;;;;;5093188;28;20291;-68
2021/08/14 09:28:12;;;;;;;5.93;5.20;;;30.20;77.90;;;;;;5092484;28;20741;-68
2021/08/14 09:30:44;;;;;;;7.88;5.28;;;30.20;78.50;;;;;;5092514;28;20205;-68
2021/08/14 09:33:13;;;;;;;12.27;5.50;;;30.20;78.80;;;;;;5093038;28;20289;-69
2021/08/14 09:35:39;;;;;;;12.07;5.45;;;30.20;78.60;;;;;;5092288;28;20232;-69
2021/08/14 09:38:08;;;;;;;6.78;5.47;;;30.30;78.40;;;;;;5092535;28;20215;-68
2021/08/14 09:40:37;;;;;;;8.93;5.32;;;30.40;77.50;;;;;;5092462;28;20212;-69
2021/08/14 09:43:06;;;;;;;8.20;4.70;;;30.40;76.40;;;;;;5092103;28;20239;-69
2021/08/14 09:45:33;;;;;;;9.13;4.68;;;30.50;76.00;;;;;;5092382;28;20200;-69
2021/08/14 09:48:16;;;;;;;6.07;4.70;;;30.60;75.30;;;;;;5092402;28;20205;-68
2021/08/14 09:50:43;;;;;;;5.43;4.50;;;30.60;74.60;;;;;;5092212;28;20736;-68
2021/08/14 09:53:12;;;;;;;6.05;4.75;;;30.50;74.90;;;;;;5092190;28;20704;-69
2021/08/14 09:55:39;;;;;;;5.50;4.93;;;30.50;75.10;;;;;;5091952;28;20204;-69
2021/08/14 09:58:10;;;;;;;8.15;4.88;;;30.60;75.10;;;;;;5092026;28;20246;-68
2021/08/14 10:00:39;;;;;;;9.10;5.00;;;30.40;75.80;;;;;;5091479;28;20243;-69
2021/08/14 10:03:06;;;;;;;7.63;5.30;;;30.30;76.10;;;;;;5091435;28;20298;-68
2021/08/14 10:05:34;;;;;;;8.30;4.82;;;30.30;76.30;;;;;;5091575;28;20212;-69
2021/08/14 10:08:01;;;;;;;5.68;5.10;;;30.40;76.10;;;;;;5091492;28;20212;-69
2021/08/14 10:10:28;;;;;;;7.45;5.22;;;30.50;76.20;;;;;;5091853;28;20207;-69
2021/08/14 10:12:57;;;;;;;5.50;4.75;;;30.50;76.40;;;;;;5091637;28;20232;-69
2021/08/14 10:15:25;;;;;;;5.40;4.70;;;30.30;76.50;;;;;;5091440;28;20611;-68
2021/08/14 10:17:52;;;;;;;8.65;5.05;;;30.40;77.50;;;;;;5091472;28;20208;-68
2021/08/14 10:20:19;;;;;;;6.88;5.10;;;30.40;76.10;;;;;;5091705;28;20204;-69
2021/08/14 10:22:46;;;;;;;5.32;4.82;;;30.40;76.10;;;;;;5091779;28;20213;-69
2021/08/14 10:25:17;;;;;;;9.18;4.90;;;30.50;76.00;;;;;;5091642;28;20200;-68
2021/08/14 10:27:56;;;;;;;7.15;5.07;;;30.50;75.90;;;;;;5091575;28;20236;-68
2021/08/14 10:30:46;;;;;;;12.52;5.38;;;30.60;76.50;;;;;;5091282;28;20216;-68
2021/08/14 10:33:37;;;;;;;7.07;4.80;;;30.60;76.40;;;;;;5091150;28;20289;-68
2021/08/14 10:36:34;;;;;;;5.85;5.03;;;30.50;77.20;;;;;;5091472;28;20225;-68
2021/08/14 10:39:19;;;;;;;7.40;5.32;;;30.40;77.70;;;;;;5091058;28;20208;-68
2021/08/14 10:41:47;;;;;;;7.28;5.68;;;30.40;78.50;;;;;;5091494;28;20200;-68
2021/08/14 10:44:15;;;;;;;9.48;5.25;;;30.50;77.70;;;;;;5091031;28;20216;-68
2021/08/14 10:46:47;;;;;;;9.23;5.53;;;30.60;77.80;;;;;;5091179;28;20583;-68
2021/08/14 10:49:19;;;;;;;9.57;5.40;;;30.70;77.20;;;;;;5091007;28;20269;-68
2021/08/14 10:52:25;;;;;;;6.85;5.60;;;30.70;77.30;;;;;;5091151;28;20208;-68
2021/08/14 10:55:15;;;;;;;5.88;4.90;;;30.80;77.00;;;;;;5084208;28;20249;-68
2021/08/14 10:57:50;;;;;;;8.35;5.38;;;30.80;78.00;;;;;;5090972;28;20211;-68
2021/08/14 11:00:25;;;;;;;7.10;5.25;;;30.90;77.80;;;;;;5090941;28;20659;-68
2021/08/14 11:03:07;;;;;;;6.15;5.03;;;31.10;76.50;;;;;;5091132;28;20800;-68
2021/08/14 11:05:35;;;;;;;6.00;4.95;;;31.10;76.80;;;;;;5090817;28;20204;-68
2021/08/14 11:08:02;;;;;;;13.57;6.13;;;31.10;77.00;;;;;;5091173;28;20207;-68
2021/08/14 11:10:34;;;;;;;7.22;5.15;;;31.20;76.90;;;;;;5091299;28;20490;-68
2021/08/14 11:13:02;;;;;;;7.88;5.88;;;31.40;76.10;;;;;;5092572;28;20224;-68
2021/08/14 11:15:30;;;;;;;6.28;5.00;;;31.50;76.10;;;;;;5094934;28;20220;-68
2021/08/14 11:17:58;;;;;;;9.25;4.88;;;31.50;75.40;;;;;;5094875;28;20227;-68
2021/08/14 11:20:33;;;;;;;6.90;5.05;;;31.50;76.40;;;;;;5094922;28;20211;-68
2021/08/14 11:23:04;;;;;;;7.95;5.30;;;31.40;75.70;;;;;;5094727;28;20270;-68
2021/08/14 11:25:33;;;;;;;9.10;4.90;;;31.40;76.00;;;;;;5095207;28;20204;-68
2021/08/14 11:28:02;;;;;;;8.80;5.65;;;31.30;76.00;;;;;;5094842;28;20208;-69
2021/08/14 11:30:32;;;;;;;5.68;4.90;;;31.50;75.80;;;;;;5094976;28;20203;-69
2021/08/14 11:32:59;;;;;;;6.50;4.88;;;31.60;75.30;;;;;;5094576;28;20263;-69
2021/08/14 11:35:26;;;;;;;6.05;4.90;;;31.80;74.50;;;;;;5094504;28;20265;-69
2021/08/14 11:37:56;;;;;;;6.47;5.15;;;31.90;74.00;;;;;;5094646;28;20581;-69
2021/08/14 11:40:25;;;;;;;9.23;5.05;;;32.10;74.10;;;;;;5095121;28;20211;-69
2021/08/14 11:42:57;;;;;;;8.27;5.03;;;31.90;74.00;;;;;;5094769;28;20228;-69
2021/08/14 11:45:24;;;;;;;5.80;4.45;;;31.90;73.90;;;;;;5094535;28;20203;-69
2021/08/14 11:47:57;;;;;;;10.15;4.93;;;31.90;74.00;;;;;;5094623;28;20208;-69
2021/08/14 11:50:25;;;;;;;7.30;5.22;;;31.90;72.70;;;;;;5094735;28;20301;-69
2021/08/14 11:52:51;;;;;;;7.20;5.25;;;31.90;73.00;;;;;;5094367;28;20224;-68
2021/08/14 11:55:21;;;;;;;6.30;4.80;;;31.90;73.30;;;;;;5094111;28;20228;-69
2021/08/14 11:57:52;;;;;;;10.15;5.32;;;32.10;73.50;;;;;;5094282;28;20212;-68
2021/08/14 12:00:29;;;;;;;7.53;5.43;;;32.30;72.30;;;;;;5094605;28;20223;-69
2021/08/14 12:03:10;;;;;;;6.70;5.15;;;32.40;72.30;;;;;;5093932;28;20790;-69
2021/08/14 12:05:39;;;;;;;6.00;4.97;;;32.40;72.90;;;;;;5093939;28;20204;-69
2021/08/14 12:08:07;;;;;;;6.78;5.05;;;32.30;73.50;;;;;;5093838;28;20219;-69
2021/08/14 12:10:36;;;;;;;8.32;5.63;;;32.30;73.00;;;;;;5094020;28;20196;-69
2021/08/14 12:13:05;;;;;;;9.43;4.93;;;32.30;72.80;;;;;;5093690;28;20235;-69
2021/08/14 12:15:39;;;;;;;8.93;5.10;;;32.30;72.90;;;;;;5093515;28;20231;-67
2021/08/14 12:18:06;;;;;;;7.00;5.07;;;32.10;72.80;;;;;;5093735;28;20609;-69
2021/08/14 12:20:34;;;;;;;5.70;4.93;;;31.90;73.10;;;;;;5093863;28;20233;-68
2021/08/14 12:23:24;;;;;;;5.63;4.88;;;31.70;74.20;;;;;;5093903;28;20220;-68
2021/08/14 12:25:54;;;;;;;8.23;4.97;;;31.60;74.60;;;;;;5093271;28;20239;-69
2021/08/14 12:28:25;;;;;;;8.07;5.30;;;31.40;75.40;;;;;;5093499;28;20686;-66
2021/08/14 12:30:52;;;;;;;6.35;5.28;;;31.50;75.90;;;;;;5093821;28;20215;-66
2021/08/14 12:33:30;;;;;;;6.32;4.90;;;31.70;75.90;;;;;;5093595;28;20240;-66
2021/08/14 12:35:58;;;;;;;7.03;4.78;;;31.90;75.60;;;;;;5093494;28;20230;-65
2021/08/14 12:38:26;;;;;;;7.47;5.80;;;32.00;74.30;;;;;;5093577;28;20841;-65
2021/08/14 12:40:55;;;;;;;11.02;5.43;;;32.00;74.20;;;;;;5093575;28;20602;-65
2021/08/14 12:43:23;;;;;;;7.65;5.03;;;32.20;73.30;;;;;;5093148;28;20726;-67
2021/08/14 12:45:50;;;;;;;7.68;5.20;;;32.30;73.30;;;;;;5093689;28;20200;-67
2021/08/14 12:48:18;;;;;;;11.55;5.22;;;32.40;72.70;;;;;;5093158;28;20211;-65
2021/08/14 12:50:44;;;;;;;8.38;5.40;;;32.60;72.30;;;;;;5093096;28;20265;-65